createdAt,value
2018-12-11T00:00:55.904Z,1011.02
2018-12-11T00:01:55.870Z,1011.05
2018-12-11T00:02:55.835Z,1011.01
2018-12-11T00:03:55.801Z,1011.07
2018-12-11T00:04:55.768Z,1011.05
2018-12-11T00:05:55.734Z,1011.06
2018-12-11T00:06:55.699Z,1011.02
2018-12-11T00:07:55.666Z,1011.06
2018-12-11T00:08:55.631Z,1011.06
2018-12-11T00:09:55.597Z,1011.08
2018-12-11T00:10:55.563Z,1011.07
2018-12-11T00:11:55.529Z,1011.08
2018-12-11T00:12:55.495Z,1011.07
2018-12-11T00:13:55.461Z,1011.10
2018-12-11T00:14:55.433Z,1011.06
2018-12-11T00:15:55.394Z,1011.01
2018-12-11T00:16:55.360Z,1011.05
2018-12-11T00:17:55.326Z,1011.05
2018-12-11T00:18:55.290Z,1011.04
2018-12-11T00:19:55.257Z,1011.05
2018-12-11T00:20:55.222Z,1011.03
2018-12-11T00:21:55.190Z,1010.99
2018-12-11T00:22:55.158Z,1011.03
2018-12-11T00:23:55.120Z,1010.95
2018-12-11T00:24:55.086Z,1011.00
2018-12-11T00:25:55.052Z,1010.94
2018-12-11T00:26:55.029Z,1010.98
2018-12-11T00:27:54.983Z,1010.95
2018-12-11T00:28:54.950Z,1010.94
2018-12-11T00:29:54.917Z,1010.95
2018-12-11T00:30:54.882Z,1010.98
2018-12-11T00:31:54.848Z,1010.94
2018-12-11T00:32:54.815Z,1010.94
2018-12-11T00:33:54.780Z,1010.93
2018-12-11T00:34:54.746Z,1010.94
2018-12-11T00:35:54.712Z,1010.85
2018-12-11T00:36:54.678Z,1010.92
2018-12-11T00:37:54.645Z,1010.93
2018-12-11T00:38:54.610Z,1010.92
2018-12-11T00:39:54.576Z,1010.91
2018-12-11T00:40:54.542Z,1010.93
2018-12-11T00:41:54.508Z,1010.86
2018-12-11T00:42:54.479Z,1010.91
2018-12-11T00:43:54.441Z,1010.87
2018-12-11T00:44:54.406Z,1010.90
2018-12-11T00:45:54.371Z,1010.98
2018-12-11T00:46:54.337Z,1010.89
2018-12-11T00:47:54.304Z,1010.92
2018-12-11T00:48:54.269Z,1010.95
2018-12-11T00:49:54.235Z,1010.89
2018-12-11T00:50:54.202Z,1010.93
2018-12-11T00:51:54.166Z,1010.95
2018-12-11T00:52:54.136Z,1011.00
2018-12-11T00:53:54.099Z,1010.98
2018-12-11T00:54:54.066Z,1010.91
2018-12-11T00:55:54.032Z,1010.91
2018-12-11T00:56:53.997Z,1010.90
2018-12-11T00:57:53.964Z,1010.91
2018-12-11T00:58:53.929Z,1010.88
2018-12-11T00:59:53.894Z,1011.01
2018-12-11T01:00:53.861Z,1011.01
2018-12-11T01:01:53.826Z,1011.03
2018-12-11T01:02:53.793Z,1010.99
2018-12-11T01:03:53.759Z,1011.00
2018-12-11T01:04:53.725Z,1011.01
2018-12-11T01:05:53.691Z,1010.98
2018-12-11T01:06:53.657Z,1011.07
2018-12-11T01:07:53.621Z,1011.07
2018-12-11T01:08:53.588Z,1010.94
2018-12-11T01:09:53.554Z,1011.03
2018-12-11T01:10:53.519Z,1011.02
2018-12-11T01:11:53.486Z,1011.02
2018-12-11T01:12:53.452Z,1011.00
2018-12-11T01:13:53.417Z,1011.06
2018-12-11T01:14:53.388Z,1011.07
2018-12-11T01:15:53.349Z,1011.02
2018-12-11T01:16:53.315Z,1011.04
2018-12-11T01:17:53.280Z,1010.96
2018-12-11T01:18:53.247Z,1011.04
2018-12-11T01:19:53.211Z,1011.01
2018-12-11T01:20:53.178Z,1011.06
2018-12-11T01:21:53.145Z,1011.11
2018-12-11T01:22:53.110Z,1011.09
2018-12-11T01:23:53.077Z,1011.09
2018-12-11T01:24:53.042Z,1011.11
2018-12-11T01:25:53.011Z,1011.06
2018-12-11T01:26:52.973Z,1011.11
2018-12-11T01:27:52.938Z,1011.08
2018-12-11T01:28:52.905Z,1011.16
2018-12-11T01:29:52.871Z,1011.11
2018-12-11T01:30:52.835Z,1011.20
2018-12-11T01:31:52.802Z,1011.18
2018-12-11T01:32:52.768Z,1011.13
2018-12-11T01:33:52.734Z,1011.13
2018-12-11T01:34:52.699Z,1011.14
2018-12-11T01:35:52.666Z,1011.14
2018-12-11T01:36:52.631Z,1011.10
2018-12-11T01:37:52.597Z,1011.08
2018-12-11T01:38:52.562Z,1011.15
2018-12-11T01:39:52.529Z,1011.11
2018-12-11T01:40:52.494Z,1011.05
2018-12-11T01:41:52.461Z,1011.20
2018-12-11T01:42:52.426Z,1011.18
2018-12-11T01:43:52.390Z,1011.17
2018-12-11T01:44:52.411Z,1011.22
2018-12-11T01:45:52.324Z,1011.25
2018-12-11T01:46:52.288Z,1011.17
2018-12-11T01:47:52.255Z,1011.20
2018-12-11T01:48:52.223Z,1011.24
2018-12-11T01:49:52.188Z,1011.23
2018-12-11T01:50:52.151Z,1011.16
2018-12-11T01:51:52.118Z,1011.19
2018-12-11T01:52:52.086Z,1011.16
2018-12-11T01:53:52.050Z,1011.17
2018-12-11T01:54:52.015Z,1011.16
2018-12-11T01:55:51.983Z,1011.15
2018-12-11T01:56:51.948Z,1011.17
2018-12-11T01:57:51.911Z,1011.19
2018-12-11T01:58:51.877Z,1011.15
2018-12-11T01:59:51.843Z,1011.19
2018-12-11T02:00:51.809Z,1011.17
2018-12-11T02:01:51.837Z,1011.21
2018-12-11T02:02:51.740Z,1011.24
2018-12-11T02:03:51.704Z,1011.21
2018-12-11T02:04:51.671Z,1011.18
2018-12-11T02:05:51.639Z,1011.16
2018-12-11T02:06:51.602Z,1011.18
2018-12-11T02:07:51.568Z,1011.24
2018-12-11T02:08:52.016Z,1011.20
2018-12-11T02:09:51.501Z,1011.27
2018-12-11T02:10:51.466Z,1011.17
2018-12-11T02:11:51.431Z,1011.27
2018-12-11T02:12:51.397Z,1011.22
2018-12-11T02:13:51.365Z,1011.26
2018-12-11T02:14:51.330Z,1011.22
2018-12-11T02:15:51.296Z,1011.19
2018-12-11T02:16:51.259Z,1011.23
2018-12-11T02:17:51.225Z,1011.23
2018-12-11T02:18:51.191Z,1011.28
2018-12-11T02:19:51.158Z,1011.26
2018-12-11T02:20:51.122Z,1011.27
2018-12-11T02:21:51.089Z,1011.22
2018-12-11T02:22:51.053Z,1011.27
2018-12-11T02:23:51.019Z,1011.21
2018-12-11T02:24:50.985Z,1011.19
2018-12-11T02:25:50.952Z,1011.25
2018-12-11T02:26:50.917Z,1011.17
2018-12-11T02:27:50.887Z,1011.24
2018-12-11T02:28:50.850Z,1011.26
2018-12-11T02:29:50.816Z,1011.24
2018-12-11T02:30:50.781Z,1011.24
2018-12-11T02:31:50.747Z,1011.25
2018-12-11T02:32:50.712Z,1011.29
2018-12-11T02:33:50.678Z,1011.19
2018-12-11T02:34:50.643Z,1011.28
2018-12-11T02:35:50.611Z,1011.20
2018-12-11T02:36:50.580Z,1011.21
2018-12-11T02:37:50.542Z,1011.25
2018-12-11T02:38:50.507Z,1011.27
2018-12-11T02:39:50.474Z,1011.32
2018-12-11T02:40:50.441Z,1011.35
2018-12-11T02:41:50.406Z,1011.37
2018-12-11T02:42:50.372Z,1011.33
2018-12-11T02:43:50.339Z,1011.36
2018-12-11T02:44:50.302Z,1011.30
2018-12-11T02:45:50.275Z,1011.37
2018-12-11T02:46:50.244Z,1011.34
2018-12-11T02:47:50.200Z,1011.43
2018-12-11T02:48:50.167Z,1011.39
2018-12-11T02:49:50.133Z,1011.38
2018-12-11T02:50:50.099Z,1011.46
2018-12-11T02:51:50.063Z,1011.37
2018-12-11T02:52:50.030Z,1011.47
2018-12-11T02:53:49.997Z,1011.52
2018-12-11T02:54:49.969Z,1011.54
2018-12-11T02:55:49.929Z,1011.44
2018-12-11T02:56:49.893Z,1011.50
2018-12-11T02:57:49.860Z,1011.50
2018-12-11T02:58:49.827Z,1011.45
2018-12-11T02:59:49.792Z,1011.50
2018-12-11T03:00:49.756Z,1011.49
2018-12-11T03:01:49.724Z,1011.45
2018-12-11T03:02:49.692Z,1011.46
2018-12-11T03:03:49.655Z,1011.37
2018-12-11T03:04:49.624Z,1011.45
2018-12-11T03:05:49.587Z,1011.41
2018-12-11T03:06:49.556Z,1011.39
2018-12-11T03:07:49.520Z,1011.41
2018-12-11T03:08:49.486Z,1011.39
2018-12-11T03:09:49.452Z,1011.38
2018-12-11T03:10:49.416Z,1011.39
2018-12-11T03:11:49.382Z,1011.37
2018-12-11T03:12:49.350Z,1011.45
2018-12-11T03:13:49.317Z,1011.42
2018-12-11T03:14:49.282Z,1011.42
2018-12-11T03:15:49.247Z,1011.42
2018-12-11T03:16:49.217Z,1011.42
2018-12-11T03:17:49.179Z,1011.38
2018-12-11T03:18:49.146Z,1011.44
2018-12-11T03:19:49.111Z,1011.47
2018-12-11T03:20:49.078Z,1011.43
2018-12-11T03:21:49.044Z,1011.49
2018-12-11T03:22:49.009Z,1011.44
2018-12-11T03:23:48.975Z,1011.43
2018-12-11T03:24:48.941Z,1011.47
2018-12-11T03:25:48.907Z,1011.47
2018-12-11T03:26:48.875Z,1011.49
2018-12-11T03:27:48.841Z,1011.47
2018-12-11T03:28:48.805Z,1011.57
2018-12-11T03:29:48.772Z,1011.52
2018-12-11T03:30:48.738Z,1011.57
2018-12-11T03:31:48.704Z,1011.61
2018-12-11T03:32:48.679Z,1011.56
2018-12-11T03:33:48.636Z,1011.55
2018-12-11T03:34:48.602Z,1011.52
2018-12-11T03:35:48.568Z,1011.60
2018-12-11T03:36:48.536Z,1011.57
2018-12-11T03:37:48.499Z,1011.57
2018-12-11T03:38:48.465Z,1011.59
2018-12-11T03:39:48.432Z,1011.64
2018-12-11T03:40:48.399Z,1011.59
2018-12-11T03:41:48.364Z,1011.62
2018-12-11T03:42:48.330Z,1011.63
2018-12-11T03:43:48.296Z,1011.65
2018-12-11T03:44:48.261Z,1011.56
2018-12-11T03:45:48.228Z,1011.60
2018-12-11T03:46:48.196Z,1011.65
2018-12-11T03:47:48.161Z,1011.66
2018-12-11T03:48:48.126Z,1011.60
2018-12-11T03:49:48.091Z,1011.59
2018-12-11T03:50:48.058Z,1011.62
2018-12-11T03:51:48.024Z,1011.68
2018-12-11T03:52:47.989Z,1011.71
2018-12-11T03:53:47.955Z,1011.76
2018-12-11T03:54:47.920Z,1011.80
2018-12-11T03:55:47.887Z,1011.74
2018-12-11T03:56:47.853Z,1011.76
2018-12-11T03:57:47.820Z,1011.75
2018-12-11T03:58:47.784Z,1011.79
2018-12-11T03:59:47.749Z,1011.74
2018-12-11T04:00:47.718Z,1011.74
2018-12-11T04:01:47.683Z,1011.75
2018-12-11T04:02:47.650Z,1011.74
2018-12-11T04:03:47.616Z,1011.73
2018-12-11T04:04:47.581Z,1011.73
2018-12-11T04:05:47.546Z,1011.81
2018-12-11T04:06:47.512Z,1011.86
2018-12-11T04:07:47.479Z,1011.79
2018-12-11T04:08:47.444Z,1011.79
2018-12-11T04:09:47.412Z,1011.80
2018-12-11T04:10:47.378Z,1011.83
2018-12-11T04:11:47.340Z,1011.91
2018-12-11T04:12:47.307Z,1011.84
2018-12-11T04:13:47.273Z,1011.84
2018-12-11T04:14:47.238Z,1011.84
2018-12-11T04:15:47.203Z,1011.81
2018-12-11T04:16:47.169Z,1011.80
2018-12-11T04:17:47.142Z,1011.86
2018-12-11T04:18:47.101Z,1011.83
2018-12-11T04:19:48.790Z,1011.86
2018-12-11T04:20:47.038Z,1011.90
2018-12-11T04:21:46.999Z,1011.91
2018-12-11T04:22:46.963Z,1011.85
2018-12-11T04:23:46.930Z,1011.86
2018-12-11T04:24:46.896Z,1011.89
2018-12-11T04:25:46.863Z,1011.91
2018-12-11T04:26:46.828Z,1011.95
2018-12-11T04:27:46.794Z,1011.83
2018-12-11T04:28:46.761Z,1011.94
2018-12-11T04:29:46.726Z,1011.90
2018-12-11T04:30:46.690Z,1011.95
2018-12-11T04:31:46.657Z,1011.93
2018-12-11T04:32:46.623Z,1011.99
2018-12-11T04:33:46.602Z,1011.98
2018-12-11T04:34:46.554Z,1011.94
2018-12-11T04:35:46.520Z,1011.97
2018-12-11T04:36:46.486Z,1011.93
2018-12-11T04:37:46.453Z,1011.94
2018-12-11T04:38:46.419Z,1012.00
2018-12-11T04:39:46.386Z,1012.00
2018-12-11T04:40:46.351Z,1012.02
2018-12-11T04:41:46.319Z,1012.00
2018-12-11T04:42:46.283Z,1011.96
2018-12-11T04:43:46.249Z,1012.01
2018-12-11T04:44:46.215Z,1012.05
2018-12-11T04:45:46.179Z,1012.04
2018-12-11T04:46:46.145Z,1012.03
2018-12-11T04:47:46.111Z,1012.10
2018-12-11T04:48:46.080Z,1012.04
2018-12-11T04:49:46.043Z,1012.05
2018-12-11T04:50:46.009Z,1012.06
2018-12-11T04:51:45.974Z,1012.06
2018-12-11T04:52:45.942Z,1012.03
2018-12-11T04:53:45.908Z,1012.04
2018-12-11T04:54:45.872Z,1012.05
2018-12-11T04:55:45.839Z,1012.07
2018-12-11T04:56:45.805Z,1012.09
2018-12-11T04:57:45.773Z,1012.05
2018-12-11T04:58:45.736Z,1012.05
2018-12-11T04:59:45.702Z,1012.14
2018-12-11T05:00:45.671Z,1012.10
2018-12-11T05:01:45.634Z,1012.11
2018-12-11T05:02:45.599Z,1012.19
2018-12-11T05:03:45.565Z,1012.16
2018-12-11T05:04:45.532Z,1012.20
2018-12-11T05:05:45.497Z,1012.19
2018-12-11T05:06:45.463Z,1012.18
2018-12-11T05:07:45.428Z,1012.18
2018-12-11T05:08:45.394Z,1012.29
2018-12-11T05:09:45.361Z,1012.27
2018-12-11T05:10:45.326Z,1012.24
2018-12-11T05:11:45.292Z,1012.30
2018-12-11T05:12:45.259Z,1012.31
2018-12-11T05:13:45.224Z,1012.30
2018-12-11T05:14:45.192Z,1012.30
2018-12-11T05:15:45.156Z,1012.34
2018-12-11T05:16:45.125Z,1012.27
2018-12-11T05:17:45.090Z,1012.37
2018-12-11T05:18:45.054Z,1012.35
2018-12-11T05:19:45.020Z,1012.42
2018-12-11T05:20:44.992Z,1012.40
2018-12-11T05:21:44.952Z,1012.41
2018-12-11T05:22:44.918Z,1012.44
2018-12-11T05:23:44.883Z,1012.47
2018-12-11T05:24:44.849Z,1012.52
2018-12-11T05:25:44.815Z,1012.51
2018-12-11T05:26:44.781Z,1012.45
2018-12-11T05:27:44.747Z,1012.49
2018-12-11T05:28:44.717Z,1012.54
2018-12-11T05:29:44.679Z,1012.50
2018-12-11T05:30:44.644Z,1012.61
2018-12-11T05:31:44.612Z,1012.46
2018-12-11T05:32:44.576Z,1012.53
2018-12-11T05:33:44.543Z,1012.53
2018-12-11T05:34:44.507Z,1012.45
2018-12-11T05:35:44.474Z,1012.55
2018-12-11T05:36:44.441Z,1012.54
2018-12-11T05:37:44.405Z,1012.59
2018-12-11T05:38:44.372Z,1012.54
2018-12-11T05:39:44.337Z,1012.60
2018-12-11T05:40:44.307Z,1012.58
2018-12-11T05:41:44.271Z,1012.69
2018-12-11T05:42:44.236Z,1012.60
2018-12-11T05:43:44.201Z,1012.62
2018-12-11T05:44:44.166Z,1012.60
2018-12-11T05:45:44.133Z,1012.62
2018-12-11T05:46:44.097Z,1012.62
2018-12-11T05:47:44.064Z,1012.63
2018-12-11T05:48:44.032Z,1012.61
2018-12-11T05:49:43.996Z,1012.65
2018-12-11T05:50:43.960Z,1012.69
2018-12-11T05:51:43.927Z,1012.69
2018-12-11T05:52:43.893Z,1012.68
2018-12-11T05:53:43.867Z,1012.75
2018-12-11T05:54:43.829Z,1012.77
2018-12-11T05:55:43.793Z,1012.74
2018-12-11T05:56:43.766Z,1012.77
2018-12-11T05:57:43.721Z,1012.76
2018-12-11T05:58:43.688Z,1012.78
2018-12-11T05:59:43.655Z,1012.82
2018-12-11T06:00:43.618Z,1012.77
2018-12-11T06:01:43.584Z,1012.85
2018-12-11T06:02:43.551Z,1012.74
2018-12-11T06:03:43.518Z,1012.83
2018-12-11T06:04:43.483Z,1012.85
2018-12-11T06:05:43.450Z,1012.86
2018-12-11T06:06:43.413Z,1012.86
2018-12-11T06:07:43.380Z,1012.82
2018-12-11T06:08:43.345Z,1012.86
2018-12-11T06:09:43.311Z,1012.83
2018-12-11T06:10:43.280Z,1012.90
2018-12-11T06:11:43.243Z,1012.88
2018-12-11T06:12:43.208Z,1012.84
2018-12-11T06:13:43.175Z,1012.88
2018-12-11T06:14:43.146Z,1012.84
2018-12-11T06:15:43.106Z,1012.84
2018-12-11T06:16:43.072Z,1012.87
2018-12-11T06:17:43.039Z,1012.89
2018-12-11T06:18:43.003Z,1012.84
2018-12-11T06:19:42.968Z,1012.92
2018-12-11T06:20:42.935Z,1012.91
2018-12-11T06:21:42.900Z,1012.94
2018-12-11T06:22:42.865Z,1012.97
2018-12-11T06:23:42.834Z,1012.95
2018-12-11T06:24:42.798Z,1012.95
2018-12-11T06:25:42.762Z,1012.98
2018-12-11T06:26:42.727Z,1012.90
2018-12-11T06:27:42.693Z,1012.89
2018-12-11T06:28:42.660Z,1012.92
2018-12-11T06:29:42.626Z,1012.94
2018-12-11T06:30:42.590Z,1012.91
2018-12-11T06:31:42.560Z,1012.92
2018-12-11T06:32:42.524Z,1012.96
2018-12-11T06:33:42.502Z,1012.89
2018-12-11T06:34:42.455Z,1012.94
2018-12-11T06:35:42.420Z,1012.99
2018-12-11T06:36:42.386Z,1013.01
2018-12-11T06:37:42.351Z,1013.07
2018-12-11T06:38:42.318Z,1012.99
2018-12-11T06:39:42.283Z,1013.02
2018-12-11T06:40:42.248Z,1013.02
2018-12-11T06:41:42.215Z,1013.02
2018-12-11T06:42:42.180Z,1012.99
2018-12-11T06:43:42.150Z,1013.07
2018-12-11T06:44:42.113Z,1013.08
2018-12-11T06:45:42.078Z,1013.12
2018-12-11T06:46:42.042Z,1013.08
2018-12-11T06:47:42.009Z,1013.08
2018-12-11T06:48:41.979Z,1013.12
2018-12-11T06:49:42.005Z,1013.17
2018-12-11T06:50:41.906Z,1013.24
2018-12-11T06:51:41.873Z,1013.15
2018-12-11T06:52:41.840Z,1013.21
2018-12-11T06:53:41.809Z,1013.27
2018-12-11T06:54:41.828Z,1013.32
2018-12-11T06:55:41.736Z,1013.23
2018-12-11T06:56:41.703Z,1013.27
2018-12-11T06:57:41.669Z,1013.28
2018-12-11T06:58:41.635Z,1013.31
2018-12-11T06:59:41.601Z,1013.34
2018-12-11T07:00:41.566Z,1013.37
2018-12-11T07:01:41.533Z,1013.43
2018-12-11T07:02:41.497Z,1013.40
2018-12-11T07:03:41.463Z,1013.42
2018-12-11T07:04:41.429Z,1013.40
2018-12-11T07:05:41.395Z,1013.40
2018-12-11T07:06:41.362Z,1013.43
2018-12-11T07:07:41.325Z,1013.43
2018-12-11T07:08:41.291Z,1013.46
2018-12-11T07:09:41.257Z,1013.47
2018-12-11T07:10:41.223Z,1013.50
2018-12-11T07:11:41.191Z,1013.52
2018-12-11T07:12:41.161Z,1013.57
2018-12-11T07:13:41.122Z,1013.56
2018-12-11T07:14:41.086Z,1013.56
2018-12-11T07:15:41.051Z,1013.60
2018-12-11T07:16:41.041Z,1013.62
2018-12-11T07:17:40.984Z,1013.63
2018-12-11T07:18:40.949Z,1013.62
2018-12-11T07:19:40.916Z,1013.72
2018-12-11T07:20:40.881Z,1013.73
2018-12-11T07:21:40.848Z,1013.66
2018-12-11T07:22:40.811Z,1013.66
2018-12-11T07:23:40.779Z,1013.77
2018-12-11T07:24:40.745Z,1013.71
2018-12-11T07:25:40.711Z,1013.78
2018-12-11T07:26:40.675Z,1013.71
2018-12-11T07:27:40.642Z,1013.71
2018-12-11T07:28:40.610Z,1013.73
2018-12-11T07:29:40.574Z,1013.79
2018-12-11T07:30:40.540Z,1013.80
2018-12-11T07:31:40.505Z,1013.81
2018-12-11T07:32:40.472Z,1013.78
2018-12-11T07:33:40.444Z,1013.85
2018-12-11T07:34:40.403Z,1013.85
2018-12-11T07:35:40.367Z,1013.93
2018-12-11T07:36:40.334Z,1013.93
2018-12-11T07:37:40.304Z,1013.84
2018-12-11T07:38:40.266Z,1013.91
2018-12-11T07:39:40.230Z,1013.97
2018-12-11T07:40:40.196Z,1013.94
2018-12-11T07:41:40.163Z,1013.99
2018-12-11T07:42:40.127Z,1013.97
2018-12-11T07:43:40.094Z,1014.02
2018-12-11T07:44:40.061Z,1013.97
2018-12-11T07:45:40.030Z,1014.03
2018-12-11T07:46:39.991Z,1014.03
2018-12-11T07:47:39.958Z,1014.05
2018-12-11T07:48:39.923Z,1014.02
2018-12-11T07:49:39.889Z,1014.02
2018-12-11T07:50:39.854Z,1013.92
2018-12-11T07:51:39.819Z,1014.02
2018-12-11T07:52:39.785Z,1014.02
2018-12-11T07:53:39.753Z,1014.00
2018-12-11T07:54:39.717Z,1014.01
2018-12-11T07:55:39.682Z,1014.01
2018-12-11T07:56:39.647Z,1014.05
2018-12-11T07:57:39.616Z,1014.08
2018-12-11T07:58:39.580Z,1014.09
2018-12-11T07:59:39.546Z,1014.06
2018-12-11T08:00:39.512Z,1014.01
2018-12-11T08:01:39.478Z,1014.01
2018-12-11T08:02:39.443Z,1014.07
2018-12-11T08:03:39.410Z,1014.13
2018-12-11T08:04:39.376Z,1014.13
2018-12-11T08:05:39.343Z,1014.17
2018-12-11T08:06:39.308Z,1014.15
2018-12-11T08:07:39.284Z,1014.13
2018-12-11T08:08:39.238Z,1014.24
2018-12-11T08:09:39.205Z,1014.20
2018-12-11T08:10:39.169Z,1014.19
2018-12-11T08:11:39.136Z,1014.15
2018-12-11T08:12:39.100Z,1014.18
2018-12-11T08:13:39.069Z,1014.19
2018-12-11T08:14:39.031Z,1014.17
2018-12-11T08:15:38.998Z,1014.15
2018-12-11T08:16:38.965Z,1014.22
2018-12-11T08:17:38.930Z,1014.26
2018-12-11T08:18:38.895Z,1014.27
2018-12-11T08:19:38.862Z,1014.35
2018-12-11T08:20:38.827Z,1014.31
2018-12-11T08:21:38.793Z,1014.40
2018-12-11T08:22:38.758Z,1014.32
2018-12-11T08:23:38.725Z,1014.37
2018-12-11T08:24:38.691Z,1014.35
2018-12-11T08:25:38.657Z,1014.33
2018-12-11T08:26:38.621Z,1014.38
2018-12-11T08:27:38.586Z,1014.31
2018-12-11T08:28:38.554Z,1014.36
2018-12-11T08:29:38.600Z,1014.35
2018-12-11T08:30:38.483Z,1014.38
2018-12-11T08:31:38.453Z,1014.43
2018-12-11T08:32:38.414Z,1014.47
2018-12-11T08:33:38.383Z,1014.46
2018-12-11T08:34:38.346Z,1014.48
2018-12-11T08:35:38.312Z,1014.41
2018-12-11T08:36:38.279Z,1014.44
2018-12-11T08:37:38.245Z,1014.41
2018-12-11T08:38:38.210Z,1014.44
2018-12-11T08:39:38.176Z,1014.43
2018-12-11T08:40:38.143Z,1014.43
2018-12-11T08:41:38.107Z,1014.49
2018-12-11T08:42:38.074Z,1014.49
2018-12-11T08:43:38.040Z,1014.43
2018-12-11T08:44:38.004Z,1014.50
2018-12-11T08:45:37.971Z,1014.43
2018-12-11T08:46:37.936Z,1014.46
2018-12-11T08:47:37.902Z,1014.47
2018-12-11T08:48:37.868Z,1014.46
2018-12-11T08:49:37.834Z,1014.44
2018-12-11T08:50:37.798Z,1014.46
2018-12-11T08:51:37.765Z,1014.44
2018-12-11T08:52:37.731Z,1014.50
2018-12-11T08:53:37.697Z,1014.41
2018-12-11T08:54:37.662Z,1014.44
2018-12-11T08:55:37.630Z,1014.51
2018-12-11T08:56:37.593Z,1014.55
2018-12-11T08:57:37.561Z,1014.58
2018-12-11T08:58:37.545Z,1014.58
2018-12-11T08:59:37.491Z,1014.57
2018-12-11T09:00:37.458Z,1014.55
2018-12-11T09:01:37.423Z,1014.57
2018-12-11T09:02:37.388Z,1014.61
2018-12-11T09:03:37.356Z,1014.61
2018-12-11T09:04:37.320Z,1014.62
2018-12-11T09:05:37.286Z,1014.64
2018-12-11T09:06:37.252Z,1014.58
2018-12-11T09:07:37.220Z,1014.61
2018-12-11T09:08:37.185Z,1014.61
2018-12-11T09:09:37.151Z,1014.62
2018-12-11T09:10:37.117Z,1014.64
2018-12-11T09:11:37.082Z,1014.61
2018-12-11T09:12:37.050Z,1014.66
2018-12-11T09:13:37.014Z,1014.70
2018-12-11T09:14:36.987Z,1014.66
2018-12-11T09:15:36.947Z,1014.74
2018-12-11T09:16:36.911Z,1014.74
2018-12-11T09:17:36.878Z,1014.71
2018-12-11T09:18:36.845Z,1014.71
2018-12-11T09:19:36.808Z,1014.73
2018-12-11T09:20:36.780Z,1014.76
2018-12-11T09:21:36.742Z,1014.77
2018-12-11T09:22:36.705Z,1014.84
2018-12-11T09:23:36.672Z,1014.82
2018-12-11T09:24:36.639Z,1014.86
2018-12-11T09:25:36.604Z,1014.83
2018-12-11T09:26:36.573Z,1014.89
2018-12-11T09:27:36.536Z,1014.93
2018-12-11T09:28:36.502Z,1014.89
2018-12-11T09:29:36.468Z,1014.92
2018-12-11T09:30:36.432Z,1014.93
2018-12-11T09:31:36.400Z,1014.90
2018-12-11T09:32:36.366Z,1014.90
2018-12-11T09:33:36.333Z,1014.94
2018-12-11T09:34:36.298Z,1014.92
2018-12-11T09:35:36.265Z,1014.91
2018-12-11T09:36:36.231Z,1014.89
2018-12-11T09:37:36.197Z,1015.00
2018-12-11T09:38:36.161Z,1014.97
2018-12-11T09:39:36.128Z,1014.96
2018-12-11T09:40:36.095Z,1014.95
2018-12-11T09:41:36.060Z,1014.97
2018-12-11T09:42:36.027Z,1014.92
2018-12-11T09:43:36.061Z,1014.98
2018-12-11T09:44:35.959Z,1014.94
2018-12-11T09:45:35.925Z,1014.94
2018-12-11T09:46:35.890Z,1014.98
2018-12-11T09:47:35.856Z,1014.95
2018-12-11T09:48:35.823Z,1014.96
2018-12-11T09:49:35.789Z,1015.00
2018-12-11T09:50:35.753Z,1015.02
2018-12-11T09:51:35.721Z,1014.99
2018-12-11T09:52:35.687Z,1015.04
2018-12-11T09:53:35.651Z,1015.08
2018-12-11T09:54:35.618Z,1015.08
2018-12-11T09:55:35.584Z,1015.14
2018-12-11T09:56:35.552Z,1015.12
2018-12-11T09:57:35.517Z,1015.09
2018-12-11T09:58:35.483Z,1015.14
2018-12-11T09:59:35.448Z,1015.17
2018-12-11T10:00:35.449Z,1015.15
2018-12-11T10:01:35.380Z,1015.21
2018-12-11T10:02:35.347Z,1015.20
2018-12-11T10:03:35.394Z,1015.17
2018-12-11T10:04:35.279Z,1015.18
2018-12-11T10:05:35.244Z,1015.21
2018-12-11T10:06:35.210Z,1015.20
2018-12-11T10:07:35.176Z,1015.23
2018-12-11T10:08:35.143Z,1015.23
2018-12-11T10:09:35.109Z,1015.24
2018-12-11T10:10:35.075Z,1015.23
2018-12-11T10:11:35.042Z,1015.21
2018-12-11T10:12:35.008Z,1015.23
2018-12-11T10:13:34.974Z,1015.24
2018-12-11T10:14:34.939Z,1015.23
2018-12-11T10:15:34.906Z,1015.27
2018-12-11T10:16:34.873Z,1015.23
2018-12-11T10:17:34.839Z,1015.21
2018-12-11T10:18:34.803Z,1015.25
2018-12-11T10:19:34.771Z,1015.26
2018-12-11T10:20:34.735Z,1015.25
2018-12-11T10:21:34.702Z,1015.31
2018-12-11T10:22:34.669Z,1015.28
2018-12-11T10:23:34.634Z,1015.28
2018-12-11T10:24:34.601Z,1015.31
2018-12-11T10:25:34.569Z,1015.31
2018-12-11T10:26:34.628Z,1015.30
2018-12-11T10:27:34.503Z,1015.33
2018-12-11T10:28:34.467Z,1015.33
2018-12-11T10:29:34.431Z,1015.30
2018-12-11T10:30:34.397Z,1015.31
2018-12-11T10:31:34.361Z,1015.30
2018-12-11T10:32:34.328Z,1015.26
2018-12-11T10:33:34.294Z,1015.35
2018-12-11T10:34:34.260Z,1015.31
2018-12-11T10:35:34.227Z,1015.34
2018-12-11T10:36:34.198Z,1015.29
2018-12-11T10:37:34.158Z,1015.32
2018-12-11T10:38:34.125Z,1015.30
2018-12-11T10:39:34.091Z,1015.29
2018-12-11T10:40:34.057Z,1015.32
2018-12-11T10:41:34.025Z,1015.35
2018-12-11T10:42:33.987Z,1015.36
2018-12-11T10:43:33.954Z,1015.33
2018-12-11T10:44:33.923Z,1015.33
2018-12-11T10:45:33.887Z,1015.36
2018-12-11T10:46:33.986Z,1015.36
2018-12-11T10:47:33.822Z,1015.45
2018-12-11T10:48:33.786Z,1015.48
2018-12-11T10:49:33.751Z,1015.41
2018-12-11T10:50:33.718Z,1015.45
2018-12-11T10:51:33.686Z,1015.43
2018-12-11T10:52:33.650Z,1015.43
2018-12-11T10:53:33.618Z,1015.40
2018-12-11T10:54:33.581Z,1015.42
2018-12-11T10:55:33.547Z,1015.43
2018-12-11T10:56:33.514Z,1015.38
2018-12-11T10:57:33.481Z,1015.42
2018-12-11T10:58:33.447Z,1015.34
2018-12-11T10:59:33.412Z,1015.38
2018-12-11T11:00:33.379Z,1015.38
2018-12-11T11:01:33.346Z,1015.39
2018-12-11T11:02:33.311Z,1015.38
2018-12-11T11:03:33.278Z,1015.37
2018-12-11T11:04:33.244Z,1015.32
2018-12-11T11:05:33.210Z,1015.38
2018-12-11T11:06:33.174Z,1015.35
2018-12-11T11:07:33.145Z,1015.37
2018-12-11T11:08:33.108Z,1015.35
2018-12-11T11:09:33.075Z,1015.33
2018-12-11T11:10:33.040Z,1015.38
2018-12-11T11:11:33.009Z,1015.40
2018-12-11T11:12:32.974Z,1015.36
2018-12-11T11:13:33.000Z,1015.33
2018-12-11T11:14:32.906Z,1015.38
2018-12-11T11:15:32.899Z,1015.38
2018-12-11T11:16:32.839Z,1015.39
2018-12-11T11:17:32.808Z,1015.34
2018-12-11T11:18:32.770Z,1015.42
2018-12-11T11:19:32.737Z,1015.40
2018-12-11T11:20:32.703Z,1015.39
2018-12-11T11:21:32.671Z,1015.39
2018-12-11T11:22:32.635Z,1015.43
2018-12-11T11:23:32.603Z,1015.42
2018-12-11T11:24:32.568Z,1015.50
2018-12-11T11:25:32.552Z,1015.45
2018-12-11T11:26:32.501Z,1015.42
2018-12-11T11:27:32.467Z,1015.42
2018-12-11T11:28:32.434Z,1015.47
2018-12-11T11:29:32.400Z,1015.49
2018-12-11T11:30:32.371Z,1015.47
2018-12-11T11:31:32.331Z,1015.47
2018-12-11T11:32:32.338Z,1015.49
2018-12-11T11:33:32.265Z,1015.49
2018-12-11T11:34:32.231Z,1015.51
2018-12-11T11:35:32.200Z,1015.53
2018-12-11T11:36:32.165Z,1015.52
2018-12-11T11:37:32.132Z,1015.51
2018-12-11T11:38:32.095Z,1015.48
2018-12-11T11:39:32.063Z,1015.49
2018-12-11T11:40:32.030Z,1015.55
2018-12-11T11:41:31.995Z,1015.56
2018-12-11T11:42:31.961Z,1015.52
2018-12-11T11:43:31.929Z,1015.56
2018-12-11T11:44:31.895Z,1015.58
2018-12-11T11:45:31.867Z,1015.55
2018-12-11T11:46:31.828Z,1015.54
2018-12-11T11:47:31.795Z,1015.53
2018-12-11T11:48:31.762Z,1015.54
2018-12-11T11:49:31.731Z,1015.56
2018-12-11T11:50:31.695Z,1015.63
2018-12-11T11:51:31.662Z,1015.61
2018-12-11T11:52:31.629Z,1015.61
2018-12-11T11:53:31.596Z,1015.62
2018-12-11T11:54:31.562Z,1015.65
2018-12-11T11:55:31.529Z,1015.62
2018-12-11T11:56:31.496Z,1015.62
2018-12-11T11:57:31.463Z,1015.65
2018-12-11T11:58:31.428Z,1015.62
2018-12-11T11:59:31.397Z,1015.65
2018-12-11T12:00:31.365Z,1015.73
2018-12-11T12:01:31.334Z,1015.75
2018-12-11T12:02:33.464Z,1015.71
2018-12-11T12:03:31.265Z,1015.68
2018-12-11T12:04:31.231Z,1015.73
2018-12-11T12:05:31.197Z,1015.71